createdAt,value
2023-01-03T00:00:54.749Z,99.99
2023-01-03T00:01:54.696Z,99.99
2023-01-03T00:02:54.500Z,99.99
2023-01-03T00:03:54.760Z,99.99
2023-01-03T00:04:54.583Z,99.99
2023-01-03T00:05:54.499Z,99.99
2023-01-03T00:06:54.485Z,99.99
2023-01-03T00:07:54.481Z,99.99
2023-01-03T00:08:54.456Z,99.99
2023-01-03T00:09:54.458Z,99.99
2023-01-03T00:10:54.185Z,99.99
2023-01-03T00:11:54.418Z,99.99
2023-01-03T00:12:54.146Z,99.99
2023-01-03T00:13:54.130Z,99.99
2023-01-03T00:14:54.377Z,99.99
2023-01-03T00:15:54.365Z,99.99
2023-01-03T00:16:54.455Z,99.99
2023-01-03T00:17:54.333Z,99.99
2023-01-03T00:18:54.322Z,99.99
2023-01-03T00:19:54.319Z,99.99
2023-01-03T00:20:54.030Z,99.99
2023-01-03T00:21:54.265Z,99.99
2023-01-03T00:22:54.266Z,99.99
2023-01-03T00:23:53.994Z,99.99
2023-01-03T00:24:54.315Z,99.99
2023-01-03T00:25:54.220Z,99.99
2023-01-03T00:26:54.217Z,99.99
2023-01-03T00:27:53.920Z,99.99
2023-01-03T00:28:54.181Z,99.99
2023-01-03T00:29:54.153Z,99.99
2023-01-03T00:30:54.234Z,99.99
2023-01-03T00:31:53.879Z,99.99
2023-01-03T00:32:53.875Z,99.99
2023-01-03T00:33:54.124Z,99.99
2023-01-03T00:34:54.128Z,99.99
2023-01-03T00:35:54.094Z,99.99
2023-01-03T00:36:54.085Z,99.99
2023-01-03T00:37:53.783Z,99.99
2023-01-03T00:38:54.029Z,99.99
2023-01-03T00:39:54.015Z,99.99
2023-01-03T00:40:53.739Z,99.99
2023-01-03T00:41:54.028Z,99.99
2023-01-03T00:42:53.721Z,99.99
2023-01-03T00:43:53.980Z,99.99
2023-01-03T00:44:53.945Z,99.99
2023-01-03T00:45:54.088Z,99.99
2023-01-03T00:46:53.663Z,99.99
2023-01-03T00:47:53.895Z,99.99
2023-01-03T00:48:53.921Z,99.99
2023-01-03T00:49:53.872Z,99.99
2023-01-03T00:50:53.858Z,99.99
2023-01-03T00:51:54.266Z,99.99
2023-01-03T00:52:53.824Z,99.99
2023-01-03T00:53:53.806Z,99.99
2023-01-03T00:54:53.540Z,99.99
2023-01-03T00:55:53.775Z,99.99
2023-01-03T00:56:53.787Z,99.99
2023-01-03T00:57:53.737Z,99.99
2023-01-03T00:58:53.731Z,99.99
2023-01-03T00:59:53.465Z,99.99
2023-01-03T01:00:53.453Z,99.99
2023-01-03T01:01:53.785Z,99.99
2023-01-03T01:02:54.226Z,99.99
2023-01-03T01:03:53.525Z,99.99
2023-01-03T01:04:53.672Z,99.99
2023-01-03T01:05:53.624Z,99.99
2023-01-03T01:06:53.634Z,99.99
2023-01-03T01:07:53.729Z,99.99
2023-01-03T01:08:53.594Z,99.99
2023-01-03T01:09:53.330Z,99.99
2023-01-03T01:10:53.565Z,99.99
2023-01-03T01:11:53.556Z,99.99
2023-01-03T01:12:53.552Z,99.99
2023-01-03T01:13:53.285Z,99.99
2023-01-03T01:14:53.494Z,99.99
2023-01-03T01:15:53.567Z,99.99
2023-01-03T01:16:53.502Z,99.99
2023-01-03T01:17:53.452Z,99.99
2023-01-03T01:18:53.455Z,99.99
2023-01-03T01:19:53.425Z,99.99
2023-01-03T01:20:53.440Z,99.99
2023-01-03T01:21:53.405Z,99.99
2023-01-03T01:22:53.374Z,99.99
2023-01-03T01:23:53.391Z,99.99
2023-01-03T01:24:53.345Z,99.99
2023-01-03T01:25:53.091Z,99.99
2023-01-03T01:26:53.086Z,99.99
2023-01-03T01:27:53.315Z,99.99
2023-01-03T01:28:53.044Z,99.99
2023-01-03T01:29:53.285Z,99.99
2023-01-03T01:30:53.417Z,99.99
2023-01-03T01:31:53.256Z,99.99
2023-01-03T01:32:53.235Z,99.99
2023-01-03T01:33:52.986Z,99.99
2023-01-03T01:34:53.204Z,99.99
2023-01-03T01:35:53.208Z,99.99
2023-01-03T01:36:53.198Z,99.99
2023-01-03T01:37:53.608Z,99.99
2023-01-03T01:38:53.589Z,99.99
2023-01-03T01:39:53.616Z,99.99
2023-01-03T01:40:53.566Z,99.99
2023-01-03T01:41:53.548Z,99.99
2023-01-03T01:42:53.525Z,99.99
2023-01-03T01:43:53.524Z,99.99
2023-01-03T01:44:53.508Z,99.99
2023-01-03T01:45:53.630Z,99.99
2023-01-03T01:46:53.592Z,99.99
2023-01-03T01:47:53.461Z,99.99
2023-01-03T01:48:53.443Z,99.99
2023-01-03T01:49:53.433Z,99.99
2023-01-03T01:50:53.155Z,99.99
2023-01-03T01:51:53.395Z,99.99
2023-01-03T01:52:53.415Z,99.99
2023-01-03T01:53:53.376Z,99.99
2023-01-03T01:54:53.096Z,99.99
2023-01-03T01:55:53.363Z,99.99
2023-01-03T01:56:53.067Z,99.99
2023-01-03T01:57:53.340Z,99.99
2023-01-03T01:58:53.034Z,99.99
2023-01-03T01:59:53.280Z,99.99
2023-01-03T02:00:53.287Z,99.99
2023-01-03T02:01:53.439Z,99.99
2023-01-03T02:02:53.768Z,99.99
2023-01-03T02:03:53.078Z,99.99
2023-01-03T02:04:53.211Z,99.99
2023-01-03T02:05:53.213Z,99.99
2023-01-03T02:06:53.185Z,99.99
2023-01-03T02:07:53.162Z,99.99
2023-01-03T02:08:53.184Z,99.99
2023-01-03T02:09:52.877Z,99.99
2023-01-03T02:10:52.854Z,99.99
2023-01-03T02:11:53.133Z,99.99
2023-01-03T02:12:53.082Z,99.99
2023-01-03T02:13:53.065Z,99.99
2023-01-03T02:14:53.051Z,99.99
2023-01-03T02:15:53.047Z,99.99
2023-01-03T02:16:53.026Z,99.99
2023-01-03T02:17:53.013Z,99.99
2023-01-03T02:18:53.000Z,99.99
2023-01-03T02:19:52.975Z,99.99
2023-01-03T02:20:52.701Z,99.99
2023-01-03T02:21:52.964Z,99.99
2023-01-03T02:22:52.671Z,99.99
2023-01-03T02:23:52.660Z,99.99
2023-01-03T02:24:52.920Z,99.99
2023-01-03T02:25:52.889Z,99.99
2023-01-03T02:26:52.878Z,99.99
2023-01-03T02:27:52.867Z,99.99
2023-01-03T02:28:52.581Z,99.99
2023-01-03T02:29:52.823Z,99.99
2023-01-03T02:30:52.662Z,99.99
2023-01-03T02:31:52.789Z,99.99
2023-01-03T02:32:52.522Z,99.99
2023-01-03T02:33:52.506Z,99.99
2023-01-03T02:34:52.738Z,99.99
2023-01-03T02:35:52.731Z,99.99
2023-01-03T02:36:52.711Z,99.99
2023-01-03T02:37:52.701Z,99.99
2023-01-03T02:38:52.444Z,99.99
2023-01-03T02:39:52.418Z,99.99
2023-01-03T02:40:52.710Z,99.99
2023-01-03T02:41:52.644Z,99.99
2023-01-03T02:42:52.622Z,99.99
2023-01-03T02:43:52.749Z,99.99
2023-01-03T02:44:52.607Z,99.99
2023-01-03T02:45:52.585Z,99.99
2023-01-03T02:46:52.704Z,99.99
2023-01-03T02:47:52.541Z,99.99
2023-01-03T02:48:52.279Z,99.99
2023-01-03T02:49:52.509Z,99.99
2023-01-03T02:50:52.522Z,99.99
2023-01-03T02:51:52.478Z,99.99
2023-01-03T02:52:52.212Z,99.99
2023-01-03T02:53:52.460Z,99.99
2023-01-03T02:54:52.442Z,99.99
2023-01-03T02:55:52.438Z,99.99
2023-01-03T02:56:52.434Z,99.99
2023-01-03T02:57:52.397Z,99.99
2023-01-03T02:58:52.388Z,99.99
2023-01-03T02:59:52.397Z,99.99
2023-01-03T03:00:52.348Z,99.99
2023-01-03T03:01:52.583Z,99.99
2023-01-03T03:02:52.664Z,99.99
2023-01-03T03:03:52.492Z,99.99
2023-01-03T03:04:52.579Z,99.99
2023-01-03T03:05:52.565Z,99.99
2023-01-03T03:06:52.556Z,99.99
2023-01-03T03:07:52.284Z,99.99
2023-01-03T03:08:52.529Z,99.99
2023-01-03T03:09:52.507Z,99.99
2023-01-03T03:10:52.488Z,99.99
2023-01-03T03:11:52.484Z,99.99
2023-01-03T03:12:52.249Z,99.99
2023-01-03T03:13:52.445Z,99.99
2023-01-03T03:14:52.476Z,99.99
2023-01-03T03:15:52.500Z,99.99
2023-01-03T03:16:52.423Z,99.99
2023-01-03T03:17:52.386Z,99.99
2023-01-03T03:18:52.124Z,99.99
2023-01-03T03:19:52.354Z,99.99
2023-01-03T03:20:52.356Z,99.99
2023-01-03T03:21:52.326Z,99.99
2023-01-03T03:22:52.314Z,99.99
2023-01-03T03:23:52.292Z,99.99
2023-01-03T03:24:52.291Z,99.99
2023-01-03T03:25:52.261Z,99.99
2023-01-03T03:26:52.004Z,99.99
2023-01-03T03:27:52.240Z,99.99
2023-01-03T03:28:52.246Z,99.99
2023-01-03T03:29:51.953Z,99.99
2023-01-03T03:30:52.209Z,99.99
2023-01-03T03:31:52.360Z,99.99
2023-01-03T03:49:21.697Z,99.99
2023-01-03T03:50:21.267Z,99.99
2023-01-03T03:51:21.530Z,99.99
2023-01-03T03:52:21.486Z,99.99
2023-01-03T03:53:21.194Z,99.99
2023-01-03T03:54:21.440Z,99.99
2023-01-03T03:55:21.159Z,99.99
2023-01-03T03:56:21.420Z,99.99
2023-01-03T03:57:21.127Z,99.99
2023-01-03T03:58:21.369Z,99.99
2023-01-03T03:59:21.390Z,99.99
2023-01-03T04:00:21.335Z,99.99
2023-01-03T04:01:21.432Z,99.99
2023-01-03T04:02:21.692Z,99.99
2023-01-03T04:03:21.599Z,99.99
2023-01-03T04:04:21.466Z,99.99
2023-01-03T04:05:21.411Z,99.99
2023-01-03T04:06:20.995Z,99.99
2023-01-03T04:07:21.228Z,99.99
2023-01-03T04:08:20.968Z,99.99
2023-01-03T04:09:21.219Z,99.99
2023-01-03T04:10:20.925Z,99.99
2023-01-03T04:11:21.168Z,99.99
2023-01-03T04:12:21.162Z,99.99
2023-01-03T04:13:20.872Z,99.99
2023-01-03T04:14:21.108Z,99.99
2023-01-03T04:15:21.107Z,99.99
2023-01-03T04:16:21.236Z,99.99
2023-01-03T04:17:20.867Z,99.99
2023-01-03T04:18:21.040Z,99.99
2023-01-03T04:19:21.033Z,99.99
2023-01-03T04:20:20.764Z,99.99
2023-01-03T04:21:23.673Z,99.99
2023-01-03T04:22:20.997Z,99.99
2023-01-03T04:23:20.994Z,99.99
2023-01-03T04:24:20.713Z,99.99
2023-01-03T04:25:20.968Z,99.99
2023-01-03T04:26:20.928Z,99.99
2023-01-03T04:27:20.929Z,99.99
2023-01-03T04:28:20.641Z,99.99
2023-01-03T04:29:20.633Z,99.99
2023-01-03T04:30:20.899Z,99.99
2023-01-03T04:31:21.001Z,99.99
2023-01-03T04:32:20.842Z,99.99
2023-01-03T04:33:20.572Z,99.99
2023-01-03T04:34:20.803Z,99.99
2023-01-03T04:35:20.790Z,99.99
2023-01-03T04:36:20.789Z,99.99
2023-01-03T04:37:20.913Z,99.99
2023-01-03T04:38:20.770Z,99.99
2023-01-03T04:39:20.496Z,99.99
2023-01-03T04:40:20.725Z,99.99
2023-01-03T04:41:20.723Z,99.99
2023-01-03T04:42:21.402Z,99.99
2023-01-03T04:43:21.359Z,99.99
2023-01-03T04:44:21.326Z,99.99
2023-01-03T04:45:21.024Z,99.99
2023-01-03T04:46:21.373Z,99.99
2023-01-03T04:47:20.987Z,99.99
2023-01-03T04:48:21.399Z,99.99
2023-01-03T04:49:20.962Z,99.99
2023-01-03T04:50:21.240Z,99.99
2023-01-03T04:51:21.188Z,99.99
2023-01-03T04:52:21.182Z,99.99
2023-01-03T04:53:21.314Z,99.99
2023-01-03T04:54:20.885Z,99.99
2023-01-03T04:55:20.875Z,99.99
2023-01-03T04:56:20.853Z,99.99
2023-01-03T04:57:21.092Z,99.99
2023-01-03T04:58:21.089Z,99.99
2023-01-03T04:59:21.070Z,99.99
2023-01-03T05:00:20.853Z,99.99
2023-01-03T05:01:21.445Z,99.99
2023-01-03T05:02:21.413Z,99.99
2023-01-03T05:03:27.996Z,99.99
2023-01-03T05:04:21.532Z,99.99
2023-01-03T05:05:21.410Z,99.99
2023-01-03T05:06:21.431Z,99.99
2023-01-03T05:07:21.391Z,99.99
2023-01-03T05:08:21.369Z,99.99
2023-01-03T05:09:21.413Z,99.99
2023-01-03T05:10:21.093Z,99.99
2023-01-03T05:11:21.327Z,99.99
2023-01-03T05:12:21.314Z,99.99
2023-01-03T05:13:21.294Z,99.99
2023-01-03T05:14:21.310Z,99.99
2023-01-03T05:15:21.072Z,99.99
2023-01-03T05:16:21.389Z,99.99
2023-01-03T05:17:20.970Z,99.99
2023-01-03T05:18:21.262Z,99.99
2023-01-03T05:19:21.200Z,99.99
2023-01-03T05:20:21.186Z,99.99
2023-01-03T05:21:21.169Z,99.99
2023-01-03T05:22:21.168Z,99.99
2023-01-03T05:23:21.142Z,99.99
2023-01-03T05:24:21.151Z,99.99
2023-01-03T05:25:21.239Z,99.99
2023-01-03T05:26:22.039Z,99.99
2023-01-03T05:27:22.056Z,99.99
2023-01-03T05:28:22.015Z,99.99
2023-01-03T05:29:21.746Z,99.99
2023-01-03T05:30:21.984Z,99.99
2023-01-03T05:31:22.202Z,99.99
2023-01-03T05:32:22.196Z,99.99
2023-01-03T05:33:21.682Z,99.99
2023-01-03T05:34:21.677Z,99.99
2023-01-03T05:35:21.918Z,99.99
2023-01-03T05:36:21.640Z,99.99
2023-01-03T05:37:21.880Z,99.99
2023-01-03T05:38:21.866Z,99.99
2023-01-03T05:39:21.862Z,99.99
2023-01-03T05:40:21.833Z,99.99
2023-01-03T05:41:21.960Z,99.99
2023-01-03T05:42:21.806Z,99.99
2023-01-03T05:43:21.801Z,99.99
2023-01-03T05:44:21.772Z,99.99
2023-01-03T05:45:21.506Z,99.99
2023-01-03T05:46:21.591Z,99.99
2023-01-03T05:47:21.730Z,99.99
2023-01-03T05:48:21.718Z,99.99
2023-01-03T05:49:21.748Z,99.99
2023-01-03T05:50:21.673Z,99.99
2023-01-03T05:51:21.408Z,99.99
2023-01-03T05:52:21.416Z,99.99
2023-01-03T05:53:21.636Z,99.99
2023-01-03T05:54:21.621Z,99.99
2023-01-03T05:55:21.616Z,99.99
2023-01-03T05:56:21.360Z,99.99
2023-01-03T05:57:21.629Z,99.99
2023-01-03T05:58:21.580Z,99.99
2023-01-03T05:59:21.540Z,99.99
2023-01-03T06:00:21.545Z,99.99
2023-01-03T06:01:21.604Z,99.99
2023-01-03T06:02:21.667Z,99.99
2023-01-03T06:03:21.487Z,99.99
2023-01-03T06:04:21.731Z,99.99
2023-01-03T06:05:21.200Z,99.99
2023-01-03T06:06:21.471Z,99.99
2023-01-03T06:07:21.170Z,99.99
2023-01-03T06:08:21.165Z,99.99
2023-01-03T06:09:21.404Z,99.99
2023-01-03T06:10:21.119Z,99.99
2023-01-03T06:11:21.132Z,99.99
2023-01-03T06:12:21.350Z,99.99
2023-01-03T06:13:21.389Z,99.99
2023-01-03T06:14:21.315Z,99.99
2023-01-03T06:15:21.312Z,99.99
2023-01-03T06:16:26.950Z,99.99
2023-01-03T06:17:21.529Z,99.99
2023-01-03T06:18:21.269Z,99.99
2023-01-03T06:19:21.331Z,99.99
2023-01-03T06:20:20.989Z,99.99
2023-01-03T06:21:20.958Z,99.99
2023-01-03T06:22:21.189Z,99.99
2023-01-03T06:23:21.179Z,99.99
2023-01-03T06:24:21.190Z,99.99
2023-01-03T06:25:21.158Z,99.99
2023-01-03T06:26:21.138Z,99.99
2023-01-03T06:27:20.864Z,99.99
2023-01-03T06:28:21.110Z,99.99
2023-01-03T06:29:21.137Z,99.99
2023-01-03T06:30:21.130Z,99.99
2023-01-03T06:31:21.267Z,99.99
2023-01-03T06:32:21.050Z,99.99
2023-01-03T06:33:20.779Z,99.99
2023-01-03T06:34:21.026Z,99.99
2023-01-03T06:35:21.017Z,99.99
2023-01-03T06:36:20.977Z,99.99
2023-01-03T06:37:20.724Z,99.99
2023-01-03T06:38:20.966Z,99.99
2023-01-03T06:39:20.679Z,99.99
2023-01-03T06:40:20.923Z,99.99
2023-01-03T06:41:20.910Z,99.99
2023-01-03T06:42:20.899Z,99.99
2023-01-03T06:43:20.868Z,99.99
2023-01-03T06:44:20.862Z,99.99
2023-01-03T06:45:21.017Z,99.99
2023-01-03T06:46:20.983Z,99.99
2023-01-03T06:47:20.560Z,99.99
2023-01-03T06:48:20.807Z,99.99
2023-01-03T06:49:20.818Z,99.99
2023-01-03T06:50:20.774Z,99.99
2023-01-03T06:51:20.528Z,99.99
2023-01-03T06:52:20.744Z,99.99
2023-01-03T06:53:20.722Z,99.99
2023-01-03T06:54:20.711Z,99.99
2023-01-03T06:55:20.463Z,99.99
2023-01-03T06:56:20.674Z,99.99
2023-01-03T06:57:29.238Z,99.99
2023-01-03T06:58:20.397Z,99.99
2023-01-03T06:59:20.628Z,99.99
2023-01-03T07:00:20.365Z,99.99
2023-01-03T07:01:20.911Z,99.99
2023-01-03T07:02:20.993Z,99.99
2023-01-03T07:03:20.600Z,99.99
2023-01-03T07:04:20.403Z,99.99
2023-01-03T07:05:20.567Z,99.99
2023-01-03T07:06:20.527Z,99.99
2023-01-03T07:07:20.523Z,99.99
2023-01-03T07:08:20.492Z,99.99
2023-01-03T07:09:20.229Z,99.99
2023-01-03T07:10:20.234Z,99.99
2023-01-03T07:11:20.447Z,99.99
2023-01-03T07:12:20.182Z,99.99
2023-01-03T07:13:20.174Z,99.99
2023-01-03T07:14:20.402Z,99.99
2023-01-03T07:15:20.133Z,99.99
2023-01-03T07:16:20.578Z,99.99
2023-01-03T07:17:20.425Z,99.99
2023-01-03T07:18:20.335Z,99.99
2023-01-03T07:19:20.337Z,99.99
2023-01-03T07:20:20.054Z,99.99
2023-01-03T07:21:20.296Z,99.99
2023-01-03T07:22:20.229Z,99.99
2023-01-03T07:23:20.020Z,99.99
2023-01-03T07:24:20.251Z,99.99
2023-01-03T07:25:20.233Z,99.99
2023-01-03T07:26:20.212Z,99.99
2023-01-03T07:27:19.944Z,99.99
2023-01-03T07:28:20.202Z,99.99
2023-01-03T07:29:20.175Z,99.99
2023-01-03T07:30:19.895Z,99.99
2023-01-03T07:31:20.046Z,99.99
2023-01-03T07:32:20.155Z,99.99
2023-01-03T07:33:20.231Z,99.99
2023-01-03T07:34:20.094Z,99.99
2023-01-03T07:35:19.814Z,99.99
2023-01-03T07:36:20.063Z,99.99
2023-01-03T07:37:20.040Z,99.99
2023-01-03T07:38:19.763Z,99.99
2023-01-03T07:39:20.015Z,99.99
2023-01-03T07:40:19.987Z,99.99
2023-01-03T07:41:19.988Z,99.99
2023-01-03T07:42:19.693Z,99.99
2023-01-03T07:43:19.975Z,99.99
2023-01-03T07:44:19.932Z,99.99
2023-01-03T07:45:19.656Z,99.99
2023-01-03T07:46:20.040Z,99.99
2023-01-03T07:47:19.618Z,99.99
2023-01-03T07:48:19.859Z,99.99
2023-01-03T07:49:19.915Z,99.99
2023-01-03T07:50:19.570Z,99.99
2023-01-03T07:51:19.820Z,99.99
2023-01-03T07:52:19.790Z,99.99
2023-01-03T07:53:19.782Z,99.99
2023-01-03T07:54:19.850Z,99.99
2023-01-03T07:55:19.847Z,99.99
2023-01-03T07:56:19.830Z,99.99
2023-01-03T07:57:19.810Z,99.99
2023-01-03T07:58:19.542Z,99.99
2023-01-03T07:59:19.776Z,99.99
2023-01-03T08:00:19.778Z,99.99
2023-01-03T08:01:20.084Z,99.99
2023-01-03T08:02:20.142Z,99.99
2023-01-03T08:03:19.824Z,99.99
2023-01-03T08:04:19.840Z,99.99
2023-01-03T08:05:19.891Z,99.99
2023-01-03T08:06:19.664Z,99.99
2023-01-03T08:07:19.390Z,99.99
2023-01-03T08:08:19.637Z,99.99
2023-01-03T08:09:19.621Z,99.99
2023-01-03T08:10:19.598Z,99.99
2023-01-03T08:11:19.331Z,99.99
2023-01-03T08:12:19.559Z,99.99
2023-01-03T08:13:19.616Z,99.99
2023-01-03T08:14:27.112Z,99.99
2023-01-03T08:15:19.273Z,99.99
2023-01-03T08:16:19.374Z,99.99
2023-01-03T08:17:19.488Z,99.99
2023-01-03T08:18:19.523Z,99.99
2023-01-03T08:19:19.452Z,99.99
2023-01-03T08:20:19.175Z,99.99
2023-01-03T08:21:19.463Z,99.99
2023-01-03T08:22:19.416Z,99.99
2023-01-03T08:23:19.378Z,99.99
2023-01-03T08:24:19.374Z,99.99
2023-01-03T08:25:19.360Z,99.99
2023-01-03T08:26:19.337Z,99.99
2023-01-03T08:27:19.324Z,99.99
2023-01-03T08:28:19.317Z,99.99
2023-01-03T08:29:19.066Z,99.99
2023-01-03T08:30:19.271Z,99.99
2023-01-03T08:31:19.456Z,99.99
2023-01-03T08:32:19.240Z,99.99
2023-01-03T08:33:18.989Z,99.99
2023-01-03T08:34:29.935Z,99.99
2023-01-03T08:35:19.198Z,99.99
2023-01-03T08:36:19.206Z,99.99
2023-01-03T08:37:19.209Z,99.99
2023-01-03T08:38:18.887Z,99.99
2023-01-03T08:39:19.124Z,99.99
2023-01-03T08:40:19.141Z,99.99
2023-01-03T08:41:19.091Z,99.99
2023-01-03T08:42:18.826Z,99.99
2023-01-03T08:43:18.807Z,99.99
2023-01-03T08:44:19.047Z,99.99
2023-01-03T08:45:19.031Z,99.99
2023-01-03T08:46:19.103Z,99.99
2023-01-03T08:47:19.178Z,99.99
2023-01-03T08:48:18.986Z,99.99
2023-01-03T08:49:18.973Z,99.99
2023-01-03T08:50:18.946Z,99.99
2023-01-03T08:51:18.936Z,99.99
2023-01-03T08:52:18.679Z,99.99
2023-01-03T08:53:18.958Z,99.99
2023-01-03T08:54:18.890Z,99.99
2023-01-03T08:55:18.863Z,99.99
2023-01-03T08:56:18.601Z,99.99
2023-01-03T08:57:18.584Z,99.99
2023-01-03T08:58:18.818Z,99.99
2023-01-03T08:59:18.800Z,99.99
2023-01-03T09:00:18.846Z,99.99
2023-01-03T09:01:19.123Z,99.99
2023-01-03T09:02:19.292Z,99.99
2023-01-03T09:03:19.239Z,99.99
2023-01-03T09:04:18.846Z,99.99
2023-01-03T09:05:18.708Z,99.99
2023-01-03T09:06:18.697Z,99.99
2023-01-03T09:07:18.711Z,99.99
2023-01-03T09:08:18.645Z,99.99
2023-01-03T09:09:18.744Z,99.99
2023-01-03T09:10:18.372Z,99.99
2023-01-03T09:11:18.623Z,99.99
2023-01-03T09:12:18.598Z,99.99
2023-01-03T09:13:18.590Z,99.99
2023-01-03T09:14:18.557Z,99.99
2023-01-03T09:15:18.565Z,99.99
2023-01-03T09:16:18.697Z,99.99
2023-01-03T09:17:18.542Z,99.99
2023-01-03T09:18:18.267Z,99.99
2023-01-03T09:19:18.485Z,99.99
2023-01-03T09:20:18.200Z,99.99
2023-01-03T09:21:18.205Z,99.99
2023-01-03T09:22:18.181Z,99.99
2023-01-03T09:23:18.164Z,99.99
2023-01-03T09:24:18.411Z,99.99
2023-01-03T09:25:18.437Z,99.99
2023-01-03T09:26:18.127Z,99.99
2023-01-03T09:27:18.096Z,99.99
2023-01-03T09:28:18.325Z,99.99
2023-01-03T09:29:18.334Z,99.99
2023-01-03T09:30:18.315Z,99.99
2023-01-03T09:31:18.424Z,99.99
2023-01-03T09:32:18.434Z,99.99
2023-01-03T09:33:18.272Z,99.99
2023-01-03T09:34:18.276Z,99.99
2023-01-03T09:35:18.242Z,99.99
2023-01-03T09:36:18.257Z,99.99
2023-01-03T09:37:18.194Z,99.99
2023-01-03T09:38:18.203Z,99.99
2023-01-03T09:39:18.191Z,99.99
2023-01-03T09:40:18.168Z,99.99
2023-01-03T09:41:18.190Z,99.99
2023-01-03T09:42:17.851Z,99.99
2023-01-03T09:43:25.826Z,99.99
2023-01-03T09:44:18.074Z,99.99
2023-01-03T09:45:17.811Z,99.99
2023-01-03T09:46:17.976Z,99.99
2023-01-03T09:47:17.945Z,99.99
2023-01-03T09:48:18.030Z,99.99
2023-01-03T09:49:17.756Z,99.99
2023-01-03T09:51:16.882Z,99.99
2023-01-03T09:51:36.741Z,99.99
2023-01-03T09:52:36.460Z,99.99
2023-01-03T09:53:36.702Z,99.99
2023-01-03T09:54:36.738Z,99.99
2023-01-03T09:55:36.672Z,99.99
2023-01-03T09:56:36.731Z,99.99
2023-01-03T09:57:36.397Z,99.99
2023-01-03T09:58:36.415Z,99.99
2023-01-03T09:59:36.693Z,99.99
2023-01-03T10:00:36.794Z,99.99
2023-01-03T10:01:36.817Z,99.99
2023-01-03T10:02:36.838Z,99.99
2023-01-03T10:03:36.473Z,99.99
2023-01-03T10:04:36.531Z,99.99
2023-01-03T10:05:36.531Z,99.99
2023-01-03T10:06:36.515Z,99.99
2023-01-03T10:07:36.537Z,99.99
2023-01-03T10:08:36.473Z,99.99
2023-01-03T10:09:36.451Z,99.99
2023-01-03T10:10:36.189Z,99.99
2023-01-03T10:11:36.417Z,99.99
2023-01-03T10:12:36.465Z,99.99
2023-01-03T10:13:36.405Z,99.99
2023-01-03T10:14:36.380Z,99.99
2023-01-03T10:15:36.359Z,99.99
2023-01-03T10:16:36.418Z,99.99
2023-01-03T10:17:36.337Z,99.99
2023-01-03T10:18:36.313Z,99.99
2023-01-03T10:19:36.026Z,99.99
2023-01-03T10:20:36.290Z,99.99
2023-01-03T10:21:36.248Z,99.99
2023-01-03T10:22:36.251Z,99.99
2023-01-03T10:23:36.221Z,99.99
2023-01-03T10:24:36.218Z,99.99
2023-01-03T10:25:36.193Z,99.99
2023-01-03T10:26:35.916Z,99.99
2023-01-03T10:27:35.905Z,99.99
2023-01-03T10:28:36.200Z,99.99
2023-01-03T10:29:35.870Z,99.99
2023-01-03T10:30:36.128Z,99.99
2023-01-03T10:31:36.187Z,99.99
2023-01-03T10:32:36.084Z,99.99
2023-01-03T10:33:36.687Z,99.99
2023-01-03T10:34:36.672Z,99.99
2023-01-03T10:35:36.707Z,99.99
2023-01-03T10:36:36.388Z,99.99
2023-01-03T10:37:36.628Z,99.99
2023-01-03T10:38:49.742Z,99.99
2023-01-03T10:39:36.595Z,99.99
2023-01-03T10:40:36.585Z,99.99
2023-01-03T10:41:36.557Z,99.99
2023-01-03T10:42:36.549Z,99.99
2023-01-03T10:43:36.552Z,99.99
2023-01-03T10:44:36.571Z,99.99
2023-01-03T10:45:49.459Z,99.99
2023-01-03T10:46:36.704Z,99.99
2023-01-03T10:47:36.464Z,99.99
2023-01-03T10:49:27.069Z,99.99
2023-01-03T10:49:39.178Z,99.99
2023-01-03T10:50:39.161Z,99.99
2023-01-03T10:51:45.098Z,99.99
2023-01-03T10:52:39.375Z,99.99
2023-01-03T10:53:39.354Z,99.99
2023-01-03T10:54:39.342Z,99.99
2023-01-03T10:55:39.077Z,99.99
2023-01-03T10:56:39.305Z,99.99
2023-01-03T10:57:39.323Z,99.99
2023-01-03T10:58:39.268Z,99.99
2023-01-03T10:59:39.308Z,99.99
2023-01-03T11:00:39.264Z,99.99
2023-01-03T11:01:39.527Z,99.99
2023-01-03T11:02:39.667Z,99.99
2023-01-03T11:03:39.354Z,99.99
2023-01-03T11:04:39.175Z,99.99
2023-01-03T11:05:39.173Z,99.99
2023-01-03T11:06:39.151Z,99.99
2023-01-03T11:07:38.879Z,99.99
2023-01-03T11:08:39.119Z,99.99
2023-01-03T11:09:38.855Z,99.99
2023-01-03T11:10:39.094Z,99.99
2023-01-03T11:11:39.066Z,99.99
2023-01-03T11:12:39.075Z,99.99
2023-01-03T11:13:38.793Z,99.99
2023-01-03T11:14:39.050Z,99.99
2023-01-03T11:15:41.615Z,99.99
2023-01-03T11:16:39.124Z,99.99
2023-01-03T11:17:38.983Z,99.99
2023-01-03T11:18:38.710Z,99.99
2023-01-03T11:19:38.953Z,99.99
2023-01-03T11:20:38.927Z,99.99
2023-01-03T11:21:38.666Z,99.99
2023-01-03T11:22:40.675Z,99.99
2023-01-03T11:23:38.633Z,99.99
2023-01-03T11:24:38.617Z,99.99
2023-01-03T11:25:38.857Z,99.99
2023-01-03T11:26:38.601Z,99.99
2023-01-03T11:27:38.971Z,99.99
2023-01-03T11:28:38.821Z,99.99
2023-01-03T11:29:38.831Z,99.99
2023-01-03T11:30:38.849Z,99.99
2023-01-03T11:31:38.864Z,99.88
2023-01-03T11:32:38.769Z,98.74
2023-01-03T11:33:38.863Z,98.07
2023-01-03T11:35:23.699Z,97.31
2023-01-03T11:35:38.463Z,97.41
2023-01-03T11:36:38.455Z,96.55
2023-01-03T11:37:38.691Z,95.98
2023-01-03T11:38:38.698Z,95.32
2023-01-03T11:39:38.666Z,94.74
2023-01-03T11:40:38.657Z,94.46
2023-01-03T11:41:38.622Z,94.74
2023-01-03T11:42:38.619Z,95.12
2023-01-03T11:43:38.597Z,95.32
2023-01-03T11:44:38.338Z,94.74
2023-01-03T11:45:41.884Z,94.84
2023-01-03T11:46:38.681Z,93.32
2023-01-03T11:47:38.587Z,93.89
2023-01-03T11:48:38.288Z,94.32
2023-01-03T11:49:38.271Z,94.6
2023-01-03T11:50:38.507Z,94.7
2023-01-03T11:51:38.491Z,95.36
2023-01-03T11:52:38.500Z,94.89
2023-01-03T11:53:38.213Z,95.17
2023-01-03T11:54:38.437Z,95.46
2023-01-03T11:55:38.426Z,95.75
2023-01-03T11:56:38.165Z,95.55
2023-01-03T11:57:38.416Z,95.36
2023-01-03T11:58:38.129Z,95.75
2023-01-03T11:59:38.378Z,96.03
2023-01-03T12:00:38.119Z,96.79
2023-01-03T12:01:41.861Z,97.36
2023-01-03T12:02:38.522Z,97.45
2023-01-03T12:03:38.692Z,97.36
2023-01-03T12:04:38.451Z,95.65
2023-01-03T12:05:38.040Z,95.46
2023-01-03T12:06:38.277Z,95.55
2023-01-03T12:07:50.331Z,96.41
2023-01-03T12:08:37.991Z,96.88
2023-01-03T12:09:37.978Z,97.36
2023-01-03T12:10:37.956Z,96.5
2023-01-03T12:11:38.196Z,95.36
2023-01-03T12:12:38.198Z,95.84
2023-01-03T12:13:37.918Z,94.89
2023-01-03T12:14:38.191Z,94.79
2023-01-03T12:15:38.381Z,94.03
2023-01-03T12:16:38.254Z,93.56
2023-01-03T12:17:38.128Z,93.08
2023-01-03T12:18:38.103Z,93.65
2023-01-03T12:19:38.133Z,92.99
2023-01-03T12:20:38.071Z,93.27
2023-01-03T12:21:37.801Z,93.65
2023-01-03T12:22:38.067Z,93.37
2023-01-03T12:23:38.019Z,93.65
2023-01-03T12:24:37.761Z,93.37
2023-01-03T12:25:38.029Z,93.8
2023-01-03T12:26:37.985Z,94.08
2023-01-03T12:27:37.987Z,94.37
2023-01-03T12:28:38.014Z,95.12
2023-01-03T12:29:37.727Z,94.84
2023-01-03T12:30:37.953Z,95.89
2023-01-03T12:31:37.969Z,96.17
2023-01-03T12:32:37.643Z,96.45
2023-01-03T12:33:37.876Z,96.45
2023-01-03T12:34:37.863Z,96.31
2023-01-03T12:35:37.912Z,96.64
2023-01-03T12:36:37.857Z,96.64
2023-01-03T12:37:37.836Z,96.83
2023-01-03T12:38:37.556Z,97.6
2023-01-03T12:39:37.812Z,97.6
2023-01-03T12:40:37.777Z,97.12
2023-01-03T12:41:37.758Z,97.02
2023-01-03T12:42:37.488Z,96.59
2023-01-03T12:43:37.744Z,97.36
2023-01-03T12:44:37.716Z,96.83
2023-01-03T12:45:38.581Z,96.17
2023-01-03T12:46:37.542Z,95.46
2023-01-03T12:47:37.693Z,95.12
2023-01-03T12:48:37.676Z,95.65
2023-01-03T12:49:37.710Z,95.84
2023-01-03T12:50:37.641Z,96.12
2023-01-03T12:51:37.681Z,96.03
2023-01-03T12:52:37.602Z,95.65
2023-01-03T12:53:37.597Z,95.17
2023-01-03T12:54:37.570Z,95.46
2023-01-03T12:55:37.553Z,95.46
2023-01-03T12:56:37.536Z,95.46
2023-01-03T12:57:37.520Z,95.36
2023-01-03T12:58:41.693Z,95.55
2023-01-03T12:59:37.504Z,95.84
2023-01-03T13:00:37.215Z,96.12
2023-01-03T13:01:37.764Z,96.12
2023-01-03T13:02:38.098Z,96.22
2023-01-03T13:03:37.628Z,96.41
2023-01-03T13:04:37.415Z,96.5
2023-01-03T13:05:37.409Z,96.22
2023-01-03T13:06:37.443Z,95.84
2023-01-03T13:07:37.415Z,95.46
2023-01-03T13:08:37.366Z,95.65
2023-01-03T13:09:37.088Z,95.46